Bulk Poland — 9V2143 — position and weather

sailwx.info

Track history (hours):
 
Tides and Currents Weather Stations Pressure Air Temp Water Temp Dewpoint Dewpoint Depression Visibility Wind Speed Wind Dir Waves Ship Positions

Bulk Poland

Last reported at 2018-Jan-21 02:04 UTC. Time now 2018-Jan-21 18:55 UTC.
Position N 35°17' W 014°35'.

Length 227 m; draft 7.1 m.

Type: Cargo ship. MMSI: 564204000.

Date/timePositionNaut miles runAvg speedWind from/ knotsBaromVisibWave heightAir tempDewpointWater temp
2018-Jan-21 02:04N 35°17' W 014°35'112.5
2018-Jan-21 02:00N 35°17' W 014°34'2112.6
2018-Jan-21 00:20N 35°24' W 014°10'712.6
2018-Jan-20 23:44N 35°27' W 014°02'312.3
2018-Jan-20 23:30N 35°29' W 013°58'2512.5
2018-Jan-20 21:29N 35°39' W 013°30'612.2
2018-Jan-20 21:00N 35°42' W 013°24'612.6
2018-Jan-20 20:30N 35°44' W 013°17'612.4
2018-Jan-20 20:00N 35°47' W 013°10'611.5
2018-Jan-20 19:30N 35°47' W 013°02'612.0
2018-Jan-20 19:00N 35°46' W 012°55'612.0
2018-Jan-20 18:29N 35°45' W 012°48'812.1
2018-Jan-20 17:51N 35°47' W 012°38'612.3
2018-Jan-20 17:20N 35°49' W 012°31'712.2
2018-Jan-20 16:44N 35°50' W 012°22'312.1
2018-Jan-20 16:30N 35°51' W 012°19'612.1
2018-Jan-20 16:00N 35°52' W 012°12'510.5
2018-Jan-20 15:30N 35°51' W 012°05'611.6
2018-Jan-20 14:59N 35°52' W 011°58'611.9
2018-Jan-20 14:30N 35°53' W 011°51'811.4
2018-Jan-20 13:48N 35°50' W 011°42'411.1
2018-Jan-20 13:28N 35°48' W 011°38'811.1
2018-Jan-20 12:43N 35°44' W 011°29'211.1
2018-Jan-20 12:30N 35°44' W 011°26'611.2
2018-Jan-20 12:00N 35°41' W 011°20'611.2
2018-Jan-20 11:30N 35°39' W 011°14'7111.5
2018-Jan-20 05:21N 35°38' W 009°47'512.3
2018-Jan-20 04:57N 35°39' W 009°40'612.5
2018-Jan-20 04:30N 35°39' W 009°34'612.5
2018-Jan-20 04:00N 35°40' W 009°26'612.5
2018-Jan-20 03:30N 35°41' W 009°18'612.3
2018-Jan-20 02:59N 35°42' W 009°11'612.4
2018-Jan-20 02:30N 35°42' W 009°03'1012.3
2018-Jan-20 01:39N 35°43' W 008°50'15312.4
2018-Jan-19 13:18N 35°58' W 005°43'413.2
2018-Jan-19 13:00N 35°58' W 005°38'612.7
2018-Jan-19 12:30N 35°59' W 005°30'611.4
2018-Jan-19 12:00N 36°01' W 005°24'510.7
2018-Jan-19 11:30N 36°02' W 005°17'611.9
2018-Jan-19 11:00N 36°03' W 005°10'612.1
2018-Jan-19 10:30N 36°04' W 005°03'612.2
2018-Jan-19 09:59N 36°05' W 004°55'612.2
2018-Jan-19 09:28N 36°06' W 004°47'  
Track history (hours):
 
Tides and Currents Weather Stations Pressure Air Temp Water Temp Dewpoint Dewpoint Depression Visibility Wind Speed Wind Dir Waves Ship Positions

Bulk Poland

Last reported at 2018-Jan-21 02:04 UTC. Time now 2018-Jan-21 18:55 UTC.
Position N 35°17' W 014°35'.

Length 227 m; draft 7.1 m.

Type: Cargo ship. MMSI: 564204000.

Date/timePositionNaut miles runAvg speedWind from/ knotsBaromVisibWave heightAir tempDewpointWater temp
2018-Jan-21 02:04N 35°17' W 014°35'112.5
2018-Jan-21 02:00N 35°17' W 014°34'2112.6
2018-Jan-21 00:20N 35°24' W 014°10'712.6
2018-Jan-20 23:44N 35°27' W 014°02'312.3
2018-Jan-20 23:30N 35°29' W 013°58'2512.5
2018-Jan-20 21:29N 35°39' W 013°30'612.2
2018-Jan-20 21:00N 35°42' W 013°24'612.6
2018-Jan-20 20:30N 35°44' W 013°17'612.4
2018-Jan-20 20:00N 35°47' W 013°10'611.5
2018-Jan-20 19:30N 35°47' W 013°02'612.0
2018-Jan-20 19:00N 35°46' W 012°55'612.0
2018-Jan-20 18:29N 35°45' W 012°48'812.1
2018-Jan-20 17:51N 35°47' W 012°38'612.3
2018-Jan-20 17:20N 35°49' W 012°31'712.2
2018-Jan-20 16:44N 35°50' W 012°22'312.1
2018-Jan-20 16:30N 35°51' W 012°19'612.1
2018-Jan-20 16:00N 35°52' W 012°12'510.5
2018-Jan-20 15:30N 35°51' W 012°05'611.6
2018-Jan-20 14:59N 35°52' W 011°58'611.9
2018-Jan-20 14:30N 35°53' W 011°51'811.4
2018-Jan-20 13:48N 35°50' W 011°42'411.1
2018-Jan-20 13:28N 35°48' W 011°38'811.1
2018-Jan-20 12:43N 35°44' W 011°29'211.1
2018-Jan-20 12:30N 35°44' W 011°26'611.2
2018-Jan-20 12:00N 35°41' W 011°20'611.2
2018-Jan-20 11:30N 35°39' W 011°14'7111.5
2018-Jan-20 05:21N 35°38' W 009°47'512.3
2018-Jan-20 04:57N 35°39' W 009°40'612.5
2018-Jan-20 04:30N 35°39' W 009°34'612.5
2018-Jan-20 04:00N 35°40' W 009°26'612.5
2018-Jan-20 03:30N 35°41' W 009°18'612.3
2018-Jan-20 02:59N 35°42' W 009°11'612.4
2018-Jan-20 02:30N 35°42' W 009°03'1012.3
2018-Jan-20 01:39N 35°43' W 008°50'15312.4
2018-Jan-19 13:18N 35°58' W 005°43'413.2
2018-Jan-19 13:00N 35°58' W 005°38'612.7
2018-Jan-19 12:30N 35°59' W 005°30'611.4
2018-Jan-19 12:00N 36°01' W 005°24'510.7
2018-Jan-19 11:30N 36°02' W 005°17'611.9
2018-Jan-19 11:00N 36°03' W 005°10'612.1
2018-Jan-19 10:30N 36°04' W 005°03'612.2
2018-Jan-19 09:59N 36°05' W 004°55'612.2
2018-Jan-19 09:28N 36°06' W 004°47'  

Dump ship's entire track history